Time;durP1;ratioP1;P1;durP2;ratioP2;P2;SDS_P1;SDS_P2;PMS_P1;PMS_P2;Temp;Humidity;BMP_temperature;BMP_pressure;BME280_temperature;BME280_humidity;BME280_pressure;Samples;Min_cycle;Max_cycle;Signal;HPM_P1;HPM_P2
2023/09/06 00:01:59;;;;;;;0.20;0.20;;;;;;;;;;6320295;28;20481;-82
2023/09/06 00:04:59;;;;;;;0.10;0.10;;;;;;;;;;6316799;28;20266;-82
2023/09/06 00:08:03;;;;;;;0.10;0.10;;;;;;;;;;6295279;28;20487;-82
2023/09/06 00:11:06;;;;;;;0.10;0.10;;;;;;;;;;6317443;28;20270;-82
2023/09/06 00:14:07;;;;;;;0.20;0.20;;;;;;;;;;6288886;28;20459;-82
2023/09/06 00:17:07;;;;;;;0.20;0.20;;;;;;;;;;6315808;28;20069;-82
2023/09/06 00:20:29;;;;;;;0.20;0.20;;;;;;;;;;6323071;28;20405;-83
2023/09/06 00:23:29;;;;;;;0.10;0.10;;;;;;;;;;6327171;28;20405;-83
2023/09/06 00:26:30;;;;;;;0.20;0.20;;;;;;;;;;6340330;28;20028;-82
2023/09/06 00:29:32;;;;;;;0.20;0.20;;;;;;;;;;6319680;28;20054;-83
2023/09/06 00:32:32;;;;;;;0.10;0.10;;;;;;;;;;6304142;28;20058;-83
2023/09/06 00:35:33;;;;;;;0.20;0.20;;;;;;;;;;6311815;28;20409;-83
2023/09/06 00:38:33;;;;;;;0.20;0.20;;;;;;;;;;6319116;28;20485;-83
2023/09/06 00:41:40;;;;;;;0.17;0.17;;;;;;;;;;6317617;28;20024;-84
2023/09/06 00:44:40;;;;;;;0.20;0.20;;;;;;;;;;6317869;28;20023;-84
2023/09/06 00:47:42;;;;;;;0.10;0.10;;;;;;;;;;6313800;28;20044;-84
2023/09/06 00:50:42;;;;;;;0.20;0.20;;;;;;;;;;6318355;28;20392;-84
2023/09/06 00:53:43;;;;;;;0.10;0.10;;;;;;;;;;6330220;28;20016;-84
2023/09/06 00:56:43;;;;;;;0.20;0.20;;;;;;;;;;6317621;28;20355;-84
2023/09/06 00:59:44;;;;;;;0.17;0.17;;;;;;;;;;6296957;28;20521;-84
2023/09/06 01:02:44;;;;;;;0.20;0.20;;;;;;;;;;6312327;28;20551;-84
2023/09/06 01:05:45;;;;;;;0.20;0.20;;;;;;;;;;6292670;28;20009;-84
2023/09/06 01:08:55;;;;;;;0.20;0.20;;;;;;;;;;6326268;28;20466;-87
2023/09/06 01:11:56;;;;;;;0.20;0.20;;;;;;;;;;6321432;28;20532;-87
2023/09/06 01:14:57;;;;;;;0.20;0.20;;;;;;;;;;6317332;28;20016;-87
2023/09/06 01:17:58;;;;;;;0.20;0.20;;;;;;;;;;6307190;28;20098;-87
2023/09/06 01:21:04;;;;;;;0.20;0.20;;;;;;;;;;6296312;28;20031;-87
2023/09/06 01:24:05;;;;;;;0.15;0.15;;;;;;;;;;6321107;28;20020;-87
2023/09/06 01:27:06;;;;;;;0.20;0.20;;;;;;;;;;6311245;28;20157;-86
2023/09/06 01:30:07;;;;;;;0.20;0.20;;;;;;;;;;6296107;28;20020;-84
2023/09/06 01:33:07;;;;;;;0.20;0.20;;;;;;;;;;6294411;28;20027;-83
2023/09/06 01:36:07;;;;;;;0.20;0.20;;;;;;;;;;6300289;28;20549;-84
2023/09/06 01:39:10;;;;;;;0.10;0.10;;;;;;;;;;6333366;28;20509;-84
2023/09/06 01:42:11;;;;;;;0.20;0.20;;;;;;;;;;6322010;28;20020;-84
2023/09/06 01:45:11;;;;;;;0.20;0.20;;;;;;;;;;6324411;28;20024;-83
2023/09/06 01:48:11;;;;;;;0.10;0.10;;;;;;;;;;6311208;28;20604;-84
2023/09/06 01:51:13;;;;;;;0.20;0.20;;;;;;;;;;6306046;28;20042;-84
2023/09/06 01:54:13;;;;;;;0.20;0.20;;;;;;;;;;6320942;28;20471;-84
2023/09/06 01:57:13;;;;;;;0.20;0.20;;;;;;;;;;6319856;28;20063;-84
2023/09/06 02:00:26;;;;;;;0.10;0.10;;;;;;;;;;6320744;28;20433;-83
2023/09/06 02:03:27;;;;;;;0.20;0.20;;;;;;;;;;6292195;28;20020;-83
2023/09/06 02:06:27;;;;;;;0.20;0.20;;;;;;;;;;6305167;28;20066;-84
2023/09/06 02:09:27;;;;;;;0.20;0.20;;;;;;;;;;6299306;28;20667;-84
2023/09/06 02:12:27;;;;;;;0.20;0.20;;;;;;;;;;6319510;28;20031;-84
2023/09/06 02:15:30;;;;;;;0.20;0.20;;;;;;;;;;6318421;28;20497;-83
2023/09/06 02:18:30;;;;;;;0.20;0.20;;;;;;;;;;6328259;28;20059;-84
2023/09/06 02:21:30;;;;;;;0.20;0.20;;;;;;;;;;6318237;28;20015;-84
2023/09/06 02:24:30;;;;;;;0.20;0.20;;;;;;;;;;6290205;28;20016;-83
2023/09/06 02:27:31;;;;;;;0.20;0.20;;;;;;;;;;6313573;28;20036;-84
2023/09/06 02:30:32;;;;;;;0.20;0.20;;;;;;;;;;6305748;28;20027;-84
2023/09/06 02:33:33;;;;;;;0.10;0.10;;;;;;;;;;6294120;28;20021;-82
2023/09/06 02:36:33;;;;;;;0.10;0.10;;;;;;;;;;6315491;28;20046;-85
2023/09/06 02:39:33;;;;;;;0.20;0.20;;;;;;;;;;6307507;28;20779;-84
2023/09/06 02:42:36;;;;;;;0.20;0.20;;;;;;;;;;6319397;28;20020;-84
2023/09/06 02:45:36;;;;;;;0.20;0.20;;;;;;;;;;6310402;28;20019;-85
2023/09/06 02:48:38;;;;;;;0.20;0.20;;;;;;;;;;6304875;28;20024;-85
2023/09/06 02:51:42;;;;;;;0.10;0.10;;;;;;;;;;6317262;28;20031;-84
2023/09/06 02:54:42;;;;;;;0.20;0.20;;;;;;;;;;6296357;28;20055;-85
2023/09/06 02:57:43;;;;;;;0.20;0.20;;;;;;;;;;6296646;28;20024;-85
2023/09/06 03:00:47;;;;;;;0.20;0.20;;;;;;;;;;6299641;28;20500;-85
2023/09/06 03:03:48;;;;;;;0.20;0.20;;;;;;;;;;6319010;28;20020;-84
2023/09/06 03:06:48;;;;;;;0.20;0.20;;;;;;;;;;6317728;28;20796;-84
2023/09/06 03:09:49;;;;;;;0.20;0.20;;;;;;;;;;6294135;28;20028;-82
2023/09/06 03:12:55;;;;;;;0.10;0.10;;;;;;;;;;6321925;28;20031;-84
2023/09/06 03:15:59;;;;;;;0.10;0.10;;;;;;;;;;6326347;28;20561;-85
2023/09/06 03:18:59;;;;;;;0.20;0.20;;;;;;;;;;6326289;28;20031;-85
2023/09/06 03:22:06;;;;;;;0.20;0.20;;;;;;;;;;6305136;28;20020;-84
2023/09/06 03:25:06;;;;;;;0.20;0.20;;;;;;;;;;6329230;28;20261;-84
2023/09/06 03:28:08;;;;;;;0.10;0.10;;;;;;;;;;6329031;28;20207;-85
2023/09/06 03:31:13;;;;;;;0.10;0.10;;;;;;;;;;6299162;28;20060;-83
2023/09/06 03:34:15;;;;;;;0.20;0.20;;;;;;;;;;6322859;28;20023;-83
2023/09/06 03:37:18;;;;;;;;;;;;;;;;;;6337567;28;20080;-83
2023/09/06 03:40:37;;;;;;;0.10;0.10;;;;;;;;;;6310261;28;19931;-84
2023/09/06 03:43:38;;;;;;;0.20;0.20;;;;;;;;;;6327556;28;20012;-83
2023/09/06 03:46:39;;;;;;;0.20;0.20;;;;;;;;;;6325486;28;20081;-83
2023/09/06 03:49:40;;;;;;;0.20;0.20;;;;;;;;;;6303431;28;20028;-84
2023/09/06 03:52:41;;;;;;;0.20;0.20;;;;;;;;;;6321158;28;20030;-84
2023/09/06 03:55:41;;;;;;;0.10;0.10;;;;;;;;;;6304552;28;20046;-83
2023/09/06 03:58:42;;;;;;;0.20;0.20;;;;;;;;;;6331087;28;20269;-83
2023/09/06 04:01:43;;;;;;;0.20;0.20;;;;;;;;;;6306023;28;20432;-83
2023/09/06 04:04:44;;;;;;;0.13;0.13;;;;;;;;;;6309510;28;20020;-83
2023/09/06 04:07:45;;;;;;;0.20;0.20;;;;;;;;;;6321332;28;20052;-83
2023/09/06 04:10:46;;;;;;;0.20;0.20;;;;;;;;;;6315310;28;20402;-83
2023/09/06 04:13:46;;;;;;;0.20;0.20;;;;;;;;;;6322034;28;20024;-83
2023/09/06 04:16:46;;;;;;;0.20;0.20;;;;;;;;;;6325936;28;20016;-83
2023/09/06 04:19:46;;;;;;;0.20;0.20;;;;;;;;;;6320394;28;20020;-83
2023/09/06 04:22:47;;;;;;;0.20;0.20;;;;;;;;;;6290478;28;20502;-83
2023/09/06 04:25:47;;;;;;;0.20;0.20;;;;;;;;;;6319417;28;20262;-83
2023/09/06 04:28:48;;;;;;;0.20;0.20;;;;;;;;;;6319883;28;20023;-83
2023/09/06 04:31:48;;;;;;;0.20;0.20;;;;;;;;;;6321134;28;20016;-85
2023/09/06 04:34:48;;;;;;;0.20;0.20;;;;;;;;;;6317385;28;20058;-83
2023/09/06 04:37:49;;;;;;;0.20;0.20;;;;;;;;;;6312401;28;20038;-84
2023/09/06 04:40:51;;;;;;;0.17;0.17;;;;;;;;;;6325852;28;20039;-83
2023/09/06 04:43:52;;;;;;;0.20;0.20;;;;;;;;;;6301236;28;20703;-83
2023/09/06 04:46:52;;;;;;;0.20;0.20;;;;;;;;;;6295159;28;20032;-83
2023/09/06 04:49:53;;;;;;;0.17;0.17;;;;;;;;;;6308300;28;20195;-83
2023/09/06 04:52:54;;;;;;;0.20;0.20;;;;;;;;;;6319890;28;20020;-83
2023/09/06 04:55:54;;;;;;;0.20;0.20;;;;;;;;;;6328729;28;20390;-83
2023/09/06 04:58:55;;;;;;;0.10;0.10;;;;;;;;;;6315535;28;20016;-85
2023/09/06 05:01:56;;;;;;;0.20;0.20;;;;;;;;;;6330323;28;20119;-85
2023/09/06 05:04:56;;;;;;;0.20;0.20;;;;;;;;;;6296040;28;20012;-85
2023/09/06 05:07:56;;;;;;;0.20;0.20;;;;;;;;;;6293339;28;20024;-85
2023/09/06 05:10:56;;;;;;;0.10;0.10;;;;;;;;;;6299012;28;20761;-85
2023/09/06 05:13:56;;;;;;;0.10;0.10;;;;;;;;;;6315620;28;20017;-85
2023/09/06 05:16:57;;;;;;;0.10;0.10;;;;;;;;;;6312278;28;20024;-86
2023/09/06 05:20:17;;;;;;;0.10;0.10;;;;;;;;;;6290344;28;20101;-86
2023/09/06 05:23:17;;;;;;;0.10;0.10;;;;;;;;;;6310813;28;20542;-86
2023/09/06 05:26:17;;;;;;;0.10;0.10;;;;;;;;;;6320087;28;20084;-85
2023/09/06 05:29:18;;;;;;;0.10;0.10;;;;;;;;;;6319163;28;20024;-86
2023/09/06 05:32:19;;;;;;;0.10;0.10;;;;;;;;;;6288993;28;20028;-85
2023/09/06 05:35:19;;;;;;;0.10;0.10;;;;;;;;;;6312551;28;20162;-86
2023/09/06 05:38:20;;;;;;;0.10;0.10;;;;;;;;;;6298197;28;20040;-86
2023/09/06 05:41:20;;;;;;;0.10;0.10;;;;;;;;;;6296257;28;20107;-85
2023/09/06 05:44:20;;;;;;;0.10;0.10;;;;;;;;;;6293338;28;20031;-86
2023/09/06 05:47:20;;;;;;;0.10;0.10;;;;;;;;;;6317778;28;20051;-83
2023/09/06 05:50:21;;;;;;;0.10;0.10;;;;;;;;;;6324811;28;20095;-83
2023/09/06 05:53:22;;;;;;;0.10;0.10;;;;;;;;;;6307307;28;20478;-82
2023/09/06 05:56:22;;;;;;;0.00;0.00;;;;;;;;;;6310941;28;20047;-82
2023/09/06 05:59:23;;;;;;;0.10;0.10;;;;;;;;;;6318281;28;20389;-83
2023/09/06 06:02:24;;;;;;;0.00;0.00;;;;;;;;;;6324591;28;20050;-83
2023/09/06 06:05:24;;;;;;;0.00;0.00;;;;;;;;;;6313488;28;20024;-82
2023/09/06 06:08:24;;;;;;;0.00;0.00;;;;;;;;;;6298382;28;20066;-86
2023/09/06 06:11:25;;;;;;;0.10;0.10;;;;;;;;;;6321489;28;20035;-86
2023/09/06 06:14:28;;;;;;;0.10;0.10;;;;;;;;;;6329137;28;20027;-86
2023/09/06 06:17:28;;;;;;;0.00;0.00;;;;;;;;;;6322149;28;20023;-86
2023/09/06 06:20:28;;;;;;;0.00;0.00;;;;;;;;;;6294549;28;20052;-86
2023/09/06 06:23:29;;;;;;;0.00;0.00;;;;;;;;;;6298922;28;20023;-86
2023/09/06 06:26:30;;;;;;;0.10;0.10;;;;;;;;;;6324310;28;20015;-86
2023/09/06 06:29:30;;;;;;;0.00;0.00;;;;;;;;;;6309877;28;20020;-86
2023/09/06 06:32:30;;;;;;;0.00;0.00;;;;;;;;;;6316666;28;20048;-86
2023/09/06 06:35:30;;;;;;;0.00;0.00;;;;;;;;;;6295543;28;20016;-86
2023/09/06 06:38:31;;;;;;;0.00;0.00;;;;;;;;;;6320437;28;20063;-86
2023/09/06 06:41:31;;;;;;;0.00;0.00;;;;;;;;;;6292613;28;20024;-87
2023/09/06 06:44:31;;;;;;;0.00;0.00;;;;;;;;;;6328192;28;20774;-87
2023/09/06 06:47:32;;;;;;;0.00;0.00;;;;;;;;;;6306521;28;20041;-87
2023/09/06 06:50:32;;;;;;;0.00;0.00;;;;;;;;;;6298686;28;20035;-87
2023/09/06 06:53:32;;;;;;;0.00;0.00;;;;;;;;;;6325011;28;20020;-87
2023/09/06 06:56:33;;;;;;;0.00;0.00;;;;;;;;;;6324576;28;20103;-87
2023/09/06 06:59:36;;;;;;;0.00;0.00;;;;;;;;;;6299859;28;20054;-83
2023/09/06 07:02:37;;;;;;;0.00;0.00;;;;;;;;;;6323125;28;20026;-83
2023/09/06 07:05:37;;;;;;;0.00;0.00;;;;;;;;;;6322209;28;20008;-83
2023/09/06 07:08:38;;;;;;;0.00;0.00;;;;;;;;;;6322210;28;20031;-83
2023/09/06 07:11:38;;;;;;;0.00;0.00;;;;;;;;;;6313859;28;20161;-83
2023/09/06 07:14:38;;;;;;;0.00;0.00;;;;;;;;;;6314277;28;20020;-83
2023/09/06 07:17:39;;;;;;;0.00;0.00;;;;;;;;;;6303373;28;20764;-83
2023/09/06 07:20:39;;;;;;;0.00;0.00;;;;;;;;;;6319984;28;20497;-82
2023/09/06 07:23:39;;;;;;;0.00;0.00;;;;;;;;;;6298816;28;20016;-82
2023/09/06 07:26:40;;;;;;;0.00;0.00;;;;;;;;;;6331022;28;20068;-82
2023/09/06 07:29:41;;;;;;;;;;;;;;;;;;6297050;28;20023;-82
2023/09/06 07:32:41;;;;;;;0.00;0.00;;;;;;;;;;6326095;28;20350;-83
2023/09/06 07:35:44;;;;;;;0.00;0.00;;;;;;;;;;6310564;28;20024;-83
2023/09/06 07:38:44;;;;;;;0.00;0.00;;;;;;;;;;6312539;28;20175;-83
2023/09/06 07:41:45;;;;;;;0.00;0.00;;;;;;;;;;6321531;28;20032;-83
2023/09/06 07:44:45;;;;;;;0.00;0.00;;;;;;;;;;6320565;28;20034;-83
2023/09/06 07:47:46;;;;;;;0.00;0.00;;;;;;;;;;6317124;28;20136;-83
2023/09/06 07:50:47;;;;;;;0.00;0.00;;;;;;;;;;6313433;28;20027;-83
2023/09/06 07:53:47;;;;;;;0.00;0.00;;;;;;;;;;6302666;28;20008;-83
2023/09/06 07:56:47;;;;;;;0.00;0.00;;;;;;;;;;6320864;28;20162;-83
2023/09/06 07:59:47;;;;;;;0.00;0.00;;;;;;;;;;6325422;28;20016;-82
2023/09/06 08:02:48;;;;;;;0.00;0.00;;;;;;;;;;6321052;28;20069;-82
2023/09/06 08:05:48;;;;;;;0.00;0.00;;;;;;;;;;6319639;28;20109;-82
2023/09/06 08:08:48;;;;;;;0.00;0.00;;;;;;;;;;6324540;28;20052;-82
2023/09/06 08:11:49;;;;;;;0.00;0.00;;;;;;;;;;6328551;28;20035;-83
2023/09/06 08:14:49;;;;;;;0.00;0.00;;;;;;;;;;6328657;28;20023;-82
2023/09/06 08:17:49;;;;;;;0.00;0.00;;;;;;;;;;6320534;28;20032;-82
2023/09/06 08:20:51;;;;;;;0.00;0.00;;;;;;;;;;6323725;28;20016;-83
2023/09/06 08:23:51;;;;;;;0.00;0.00;;;;;;;;;;6321852;28;20563;-82
2023/09/06 08:26:52;;;;;;;0.00;0.00;;;;;;;;;;6313250;28;20103;-81
2023/09/06 08:29:52;;;;;;;0.00;0.00;;;;;;;;;;6319648;28;20023;-80
2023/09/06 08:32:52;;;;;;;0.00;0.00;;;;;;;;;;6319446;28;20150;-81
2023/09/06 08:35:52;;;;;;;0.00;0.00;;;;;;;;;;6311991;28;20016;-80
2023/09/06 08:38:53;;;;;;;0.00;0.00;;;;;;;;;;6315005;28;20039;-81
2023/09/06 08:41:54;;;;;;;0.00;0.00;;;;;;;;;;6307806;28;20012;-80
2023/09/06 08:44:54;;;;;;;;;;;;;;;;;;6318157;28;20020;-80
2023/09/06 08:47:55;;;;;;;0.00;0.00;;;;;;;;;;6320976;28;19961;-81
2023/09/06 08:50:56;;;;;;;0.00;0.00;;;;;;;;;;6318528;28;20019;-81
2023/09/06 08:53:56;;;;;;;0.00;0.00;;;;;;;;;;6325593;28;20020;-80
2023/09/06 08:56:57;;;;;;;0.00;0.00;;;;;;;;;;6303031;28;20064;-81
2023/09/06 08:59:58;;;;;;;0.00;0.00;;;;;;;;;;6293425;28;20017;-80
2023/09/06 09:02:58;;;;;;;0.00;0.00;;;;;;;;;;6327596;28;20019;-81
2023/09/06 09:06:06;;;;;;;0.00;0.00;;;;;;;;;;6297036;28;20024;-81
2023/09/06 09:09:16;;;;;;;0.00;0.00;;;;;;;;;;6302207;28;20092;-81
2023/09/06 09:12:16;;;;;;;0.00;0.00;;;;;;;;;;6320285;28;20069;-80
2023/09/06 09:15:19;;;;;;;0.00;0.00;;;;;;;;;;6321782;28;20027;-81
2023/09/06 09:18:20;;;;;;;0.00;0.00;;;;;;;;;;6314039;28;20031;-80
2023/09/06 09:21:20;;;;;;;0.00;0.00;;;;;;;;;;6326014;28;20016;-81
2023/09/06 09:24:25;;;;;;;0.00;0.00;;;;;;;;;;6305006;28;20023;-81
2023/09/06 09:27:27;;;;;;;0.00;0.00;;;;;;;;;;6319275;28;20020;-80
2023/09/06 09:30:28;;;;;;;0.00;0.00;;;;;;;;;;6295517;28;20030;-81
2023/09/06 09:33:29;;;;;;;0.00;0.00;;;;;;;;;;6321799;28;20016;-81
2023/09/06 09:36:34;;;;;;;0.00;0.00;;;;;;;;;;6297306;28;20119;-81
2023/09/06 09:39:34;;;;;;;0.00;0.00;;;;;;;;;;6329191;28;20127;-81
2023/09/06 09:42:35;;;;;;;0.00;0.00;;;;;;;;;;6316241;28;20020;-81
2023/09/06 09:45:43;;;;;;;0.00;0.00;;;;;;;;;;6316349;28;20431;-81
2023/09/06 09:48:44;;;;;;;0.00;0.00;;;;;;;;;;6315185;28;20027;-81
2023/09/06 09:51:45;;;;;;;0.00;0.00;;;;;;;;;;6318950;28;20020;-81
2023/09/06 09:54:47;;;;;;;0.00;0.00;;;;;;;;;;6324641;28;20107;-80
2023/09/06 09:57:48;;;;;;;0.00;0.00;;;;;;;;;;6311457;28;20035;-80
2023/09/06 10:00:51;;;;;;;0.00;0.00;;;;;;;;;;6316336;28;20427;-80
2023/09/06 10:03:55;;;;;;;0.00;0.00;;;;;;;;;;6310957;28;20645;-81
2023/09/06 10:06:55;;;;;;;0.00;0.00;;;;;;;;;;6319615;28;20023;-80
2023/09/06 10:09:56;;;;;;;0.00;0.00;;;;;;;;;;6318183;28;20099;-80
2023/09/06 10:12:57;;;;;;;0.00;0.00;;;;;;;;;;6293990;28;20273;-81
2023/09/06 10:15:58;;;;;;;0.00;0.00;;;;;;;;;;6322077;28;20023;-80
2023/09/06 10:18:58;;;;;;;0.00;0.00;;;;;;;;;;6315608;28;20020;-81
2023/09/06 10:22:00;;;;;;;0.00;0.00;;;;;;;;;;6309927;28;20050;-81
2023/09/06 10:25:04;;;;;;;0.00;0.00;;;;;;;;;;6308246;28;20021;-81
2023/09/06 10:28:04;;;;;;;0.00;0.00;;;;;;;;;;6316519;28;20569;-81
2023/09/06 10:31:07;;;;;;;0.00;0.00;;;;;;;;;;6297046;28;20032;-81
2023/09/06 10:34:11;;;;;;;0.00;0.00;;;;;;;;;;6311902;28;20273;-81
2023/09/06 10:37:11;;;;;;;0.00;0.00;;;;;;;;;;6307664;28;20028;-82
2023/09/06 10:40:12;;;;;;;0.00;0.00;;;;;;;;;;6304995;28;20156;-82
2023/09/06 10:43:12;;;;;;;0.00;0.00;;;;;;;;;;6291302;28;20032;-81
2023/09/06 10:46:13;;;;;;;0.00;0.00;;;;;;;;;;6313798;28;20119;-81
2023/09/06 10:49:14;;;;;;;;;;;;;;;;;;6296631;28;20784;-81
2023/09/06 10:52:14;;;;;;;0.00;0.00;;;;;;;;;;6319064;28;19915;-81
2023/09/06 10:55:22;;;;;;;0.00;0.00;;;;;;;;;;6297731;28;20378;-82
2023/09/06 10:58:23;;;;;;;0.00;0.00;;;;;;;;;;6285484;28;20026;-82
2023/09/06 11:01:24;;;;;;;0.00;0.00;;;;;;;;;;6289227;28;20008;-81
2023/09/06 11:04:24;;;;;;;;;;;;;;;;;;6310183;28;20546;-81
2023/09/06 11:07:36;;;;;;;0.00;0.00;;;;;;;;;;6309572;28;19908;-81
2023/09/06 11:10:36;;;;;;;0.00;0.00;;;;;;;;;;6310918;28;20021;-81
2023/09/06 11:13:36;;;;;;;;;;;;;;;;;;6306534;28;20056;-82
2023/09/06 11:16:46;;;;;;;0.00;0.00;;;;;;;;;;6324129;28;20009;-81
2023/09/06 11:19:46;;;;;;;0.00;0.00;;;;;;;;;;6312749;28;20069;-82
2023/09/06 11:25:59;;;;;;;0.00;0.00;;;;;;;;;;7153987;22;19935;-75
2023/09/06 11:29:03;;;;;;;0.00;0.00;;;;;;;;;;6281298;28;20026;-82
2023/09/06 11:32:11;;;;;;;0.00;0.00;;;;;;;;;;6287665;28;20031;-83
2023/09/06 11:35:14;;;;;;;0.00;0.00;;;;;;;;;;6291499;28;20044;-82
2023/09/06 11:38:16;;;;;;;0.00;0.00;;;;;;;;;;6295599;28;20733;-82
2023/09/06 11:41:17;;;;;;;0.00;0.00;;;;;;;;;;6299057;28;20115;-81
2023/09/06 11:44:19;;;;;;;;;;;;;;;;;;6292998;28;20026;-82
2023/09/06 11:47:19;;;;;;;;;;;;;;;;;;6297970;28;19919;-81
2023/09/06 11:50:23;;;;;;;0.00;0.00;;;;;;;;;;6297397;28;19908;-83
2023/09/06 11:53:25;;;;;;;0.00;0.00;;;;;;;;;;6298007;28;20059;-82
2023/09/06 11:56:36;;;;;;;0.00;0.00;;;;;;;;;;6303461;28;20021;-82
2023/09/06 11:59:37;;;;;;;0.00;0.00;;;;;;;;;;6303463;28;20017;-82
2023/09/06 12:02:38;;;;;;;0.00;0.00;;;;;;;;;;6294992;28;20028;-82
2023/09/06 12:05:38;;;;;;;;;;;;;;;;;;6313577;28;20031;-83
2023/09/06 12:08:38;;;;;;;0.00;0.00;;;;;;;;;;6282359;28;19916;-83
2023/09/06 12:11:39;;;;;;;;;;;;;;;;;;6275909;28;20035;-82
2023/09/06 12:14:42;;;;;;;0.00;0.00;;;;;;;;;;6296224;28;20348;-83
2023/09/06 12:17:42;;;;;;;0.00;0.00;;;;;;;;;;6294292;28;20139;-82
2023/09/06 12:20:42;;;;;;;;;;;;;;;;;;6294781;28;20080;-83
2023/09/06 12:23:44;;;;;;;0.00;0.00;;;;;;;;;;6310289;28;19912;-83
2023/09/06 12:26:44;;;;;;;0.00;0.00;;;;;;;;;;6295136;28;20056;-82
2023/09/06 12:29:44;;;;;;;;;;;;;;;;;;6298897;28;20017;-81
2023/09/06 12:32:45;;;;;;;0.00;0.00;;;;;;;;;;6291109;28;19912;-80
2023/09/06 12:35:45;;;;;;;;;;;;;;;;;;6273665;28;20040;-82
2023/09/06 12:38:45;;;;;;;0.00;0.00;;;;;;;;;;6308237;28;19962;-81
2023/09/06 12:41:45;;;;;;;;;;;;;;;;;;6305773;28;20020;-82
2023/09/06 12:44:46;;;;;;;0.00;0.00;;;;;;;;;;6301168;28;19912;-81
2023/09/06 12:47:46;;;;;;;;;;;;;;;;;;6304762;28;20478;-82
2023/09/06 12:50:46;;;;;;;0.00;0.00;;;;;;;;;;6306804;28;19916;-81
2023/09/06 12:53:46;;;;;;;;;;;;;;;;;;6286051;28;20032;-81
2023/09/06 12:56:47;;;;;;;0.00;0.00;;;;;;;;;;6302509;28;19962;-82
2023/09/06 12:59:47;;;;;;;;;;;;;;;;;;6266740;28;20540;-82
2023/09/06 13:02:47;;;;;;;0.00;0.00;;;;;;;;;;6293930;28;20003;-82
2023/09/06 13:05:48;;;;;;;;;;;;;;;;;;6295289;28;20022;-83
2023/09/06 13:08:50;;;;;;;0.00;0.00;;;;;;;;;;6309380;28;19935;-83
2023/09/06 13:11:50;;;;;;;0.00;0.00;;;;;;;;;;6293967;28;20083;-82
2023/09/06 13:14:50;;;;;;;;;;;;;;;;;;6276660;28;20391;-82
2023/09/06 13:17:51;;;;;;;0.00;0.00;;;;;;;;;;6282559;28;19962;-82
2023/09/06 13:20:51;;;;;;;;;;;;;;;;;;6289134;28;20028;-82
2023/09/06 13:23:52;;;;;;;0.00;0.00;;;;;;;;;;6288944;28;19950;-82
2023/09/06 13:26:53;;;;;;;;;;;;;;;;;;6292702;28;20067;-82
2023/09/06 13:29:55;;;;;;;0.00;0.00;;;;;;;;;;6294560;28;19918;-82
2023/09/06 13:32:55;;;;;;;0.00;0.00;;;;;;;;;;6292237;28;20032;-82
2023/09/06 13:35:55;;;;;;;;;;;;;;;;;;6272079;28;20438;-82
2023/09/06 13:38:55;;;;;;;0.00;0.00;;;;;;;;;;6289949;28;19916;-82
2023/09/06 13:41:55;;;;;;;0.00;0.00;;;;;;;;;;6290797;28;20033;-82
2023/09/06 13:44:56;;;;;;;0.00;0.00;;;;;;;;;;6296399;28;20055;-76
2023/09/06 13:47:56;;;;;;;0.00;0.00;;;;;;;;;;6291822;28;20025;-83
2023/09/06 13:50:56;;;;;;;;;;;;;;;;;;6293617;28;20024;-81
2023/09/06 13:53:57;;;;;;;0.00;0.00;;;;;;;;;;6293232;28;19960;-80
2023/09/06 13:56:57;;;;;;;0.00;0.00;;;;;;;;;;6304833;28;20102;-81
2023/09/06 13:59:57;;;;;;;0.00;0.00;;;;;;;;;;6272171;28;20023;-81
2023/09/06 14:02:57;;;;;;;0.00;0.00;;;;;;;;;;6269472;28;20012;-81
2023/09/06 14:05:57;;;;;;;0.00;0.00;;;;;;;;;;6299567;28;20043;-81
2023/09/06 14:09:00;;;;;;;0.00;0.00;;;;;;;;;;6306193;28;20035;-82
2023/09/06 14:12:00;;;;;;;0.00;0.00;;;;;;;;;;6307319;28;20023;-82
2023/09/06 14:15:00;;;;;;;0.00;0.00;;;;;;;;;;6257559;28;20036;-82
2023/09/06 14:18:02;;;;;;;0.00;0.00;;;;;;;;;;6291438;28;20541;-82
2023/09/06 14:21:04;;;;;;;0.00;0.00;;;;;;;;;;6293165;28;20307;-81
2023/09/06 14:24:04;;;;;;;0.00;0.00;;;;;;;;;;6293165;28;20028;-82
2023/09/06 14:27:05;;;;;;;0.00;0.00;;;;;;;;;;6293489;28;20071;-82
2023/09/06 14:30:05;;;;;;;0.00;0.00;;;;;;;;;;6300046;28;20480;-82
2023/09/06 14:33:07;;;;;;;0.00;0.00;;;;;;;;;;6300648;28;20056;-82
2023/09/06 14:36:07;;;;;;;0.00;0.00;;;;;;;;;;6291782;28;20020;-82
2023/09/06 14:39:08;;;;;;;0.00;0.00;;;;;;;;;;6284602;28;20381;-82
2023/09/06 14:42:09;;;;;;;0.00;0.00;;;;;;;;;;6296332;28;20251;-82
2023/09/06 14:45:09;;;;;;;0.00;0.00;;;;;;;;;;6303326;28;20458;-82
2023/09/06 14:48:11;;;;;;;0.00;0.00;;;;;;;;;;6291832;28;20776;-82
2023/09/06 14:51:11;;;;;;;0.00;0.00;;;;;;;;;;6277826;28;20025;-82
2023/09/06 14:54:11;;;;;;;0.00;0.00;;;;;;;;;;6295467;28;20045;-82
2023/09/06 14:57:12;;;;;;;0.00;0.00;;;;;;;;;;6299226;28;20036;-82
2023/09/06 15:00:12;;;;;;;0.00;0.00;;;;;;;;;;6294698;28;20430;-82
2023/09/06 15:03:13;;;;;;;0.00;0.00;;;;;;;;;;6300334;28;20531;-82
2023/09/06 15:06:14;;;;;;;0.00;0.00;;;;;;;;;;6294454;28;20024;-82
2023/09/06 15:09:17;;;;;;;0.00;0.00;;;;;;;;;;6273294;28;20029;-82
2023/09/06 15:12:17;;;;;;;0.00;0.00;;;;;;;;;;6309093;28;20028;-83
2023/09/06 15:15:17;;;;;;;0.00;0.00;;;;;;;;;;6279550;28;20035;-83
2023/09/06 15:18:18;;;;;;;0.00;0.00;;;;;;;;;;6280648;28;20024;-82
2023/09/06 15:21:18;;;;;;;0.00;0.00;;;;;;;;;;6298606;28;20494;-82
2023/09/06 15:24:18;;;;;;;0.00;0.00;;;;;;;;;;6297544;28;20765;-82
2023/09/06 15:27:19;;;;;;;0.00;0.00;;;;;;;;;;6301109;28;20055;-82
2023/09/06 15:30:20;;;;;;;0.00;0.00;;;;;;;;;;6299241;28;20029;-82
2023/09/06 15:33:20;;;;;;;0.00;0.00;;;;;;;;;;6287557;28;20036;-82
2023/09/06 15:36:20;;;;;;;0.00;0.00;;;;;;;;;;6277373;28;20028;-82
2023/09/06 15:39:20;;;;;;;0.00;0.00;;;;;;;;;;6300333;28;20051;-82
2023/09/06 15:42:22;;;;;;;0.00;0.00;;;;;;;;;;6295026;28;20107;-80
2023/09/06 15:45:22;;;;;;;0.00;0.00;;;;;;;;;;6299490;28;20470;-81
2023/09/06 15:48:23;;;;;;;0.00;0.00;;;;;;;;;;6295653;28;20053;-81
2023/09/06 15:51:23;;;;;;;0.00;0.00;;;;;;;;;;6301082;28;20040;-81
2023/09/06 15:54:24;;;;;;;0.00;0.00;;;;;;;;;;6309521;28;20115;-81
2023/09/06 15:57:26;;;;;;;0.00;0.00;;;;;;;;;;6296508;28;20107;-81
2023/09/06 16:00:26;;;;;;;0.00;0.00;;;;;;;;;;6296450;28;20348;-81
2023/09/06 16:03:27;;;;;;;0.00;0.00;;;;;;;;;;6299293;28;20057;-81
2023/09/06 16:06:28;;;;;;;0.00;0.00;;;;;;;;;;6293236;28;20031;-81
2023/09/06 16:09:28;;;;;;;0.00;0.00;;;;;;;;;;6301318;28;20301;-81
2023/09/06 16:12:31;;;;;;;0.00;0.00;;;;;;;;;;6298549;28;20028;-82
2023/09/06 16:15:32;;;;;;;0.00;0.00;;;;;;;;;;6295286;28;20082;-82
2023/09/06 16:18:32;;;;;;;0.00;0.00;;;;;;;;;;6313781;28;20020;-81
2023/09/06 16:21:33;;;;;;;0.00;0.00;;;;;;;;;;6301116;28;20560;-81
2023/09/06 16:24:33;;;;;;;0.00;0.00;;;;;;;;;;6293714;28;20031;-82
2023/09/06 16:27:33;;;;;;;0.00;0.00;;;;;;;;;;6296461;28;20041;-82
2023/09/06 16:30:34;;;;;;;0.00;0.00;;;;;;;;;;6300044;28;20023;-82
2023/09/06 16:33:35;;;;;;;0.00;0.00;;;;;;;;;;6301853;28;20103;-82
2023/09/06 16:36:35;;;;;;;0.00;0.00;;;;;;;;;;6299817;28;20052;-82
2023/09/06 16:39:37;;;;;;;0.00;0.00;;;;;;;;;;6311889;28;20012;-83
2023/09/06 16:42:38;;;;;;;0.00;0.00;;;;;;;;;;6293600;28;20266;-83
2023/09/06 16:45:38;;;;;;;;;;;;;;;;;;6262867;28;20104;-83
2023/09/06 16:48:38;;;;;;;0.00;0.00;;;;;;;;;;6295341;28;19919;-83
2023/09/06 16:51:38;;;;;;;;;;;;;;;;;;6299894;28;20024;-82
2023/09/06 16:54:38;;;;;;;0.00;0.00;;;;;;;;;;6296912;28;19954;-83
2023/09/06 16:57:39;;;;;;;0.00;0.00;;;;;;;;;;6281902;28;20024;-82
2023/09/06 17:00:39;;;;;;;0.00;0.00;;;;;;;;;;6299040;28;20120;-82
2023/09/06 17:03:39;;;;;;;0.00;0.00;;;;;;;;;;6292775;28;20447;-82
2023/09/06 17:06:40;;;;;;;0.00;0.00;;;;;;;;;;6273304;28;20309;-83
2023/09/06 17:09:40;;;;;;;0.00;0.00;;;;;;;;;;6294522;28;20016;-83
2023/09/06 17:12:40;;;;;;;0.00;0.00;;;;;;;;;;6276453;28;20048;-83
2023/09/06 17:15:41;;;;;;;0.00;0.00;;;;;;;;;;6299295;28;20030;-83
2023/09/06 17:18:44;;;;;;;0.00;0.00;;;;;;;;;;6300030;28;20505;-82
2023/09/06 17:21:44;;;;;;;0.00;0.00;;;;;;;;;;6302086;28;20023;-82
2023/09/06 17:24:45;;;;;;;0.00;0.00;;;;;;;;;;6293512;28;20119;-82
2023/09/06 17:27:46;;;;;;;0.00;0.00;;;;;;;;;;6291985;28;20052;-82
2023/09/06 17:30:46;;;;;;;0.00;0.00;;;;;;;;;;6290739;28;20048;-82
2023/09/06 17:33:48;;;;;;;0.00;0.00;;;;;;;;;;6291720;28;20020;-82
2023/09/06 17:36:48;;;;;;;0.10;0.10;;;;;;;;;;6292494;28;20131;-75
2023/09/06 17:39:48;;;;;;;0.10;0.10;;;;;;;;;;6284295;28;20020;-75
2023/09/06 17:42:48;;;;;;;0.10;0.10;;;;;;;;;;6283218;28;20032;-75
2023/09/06 17:45:50;;;;;;;0.10;0.10;;;;;;;;;;6286026;28;20043;-82
2023/09/06 17:48:51;;;;;;;0.00;0.00;;;;;;;;;;6273217;28;20027;-81
2023/09/06 17:51:51;;;;;;;;;;;;;;;;;;6285262;28;20025;-81
2023/09/06 17:54:52;;;;;;;0.10;0.10;;;;;;;;;;6295367;28;19915;-81
2023/09/06 17:57:52;;;;;;;0.10;0.10;;;;;;;;;;6292713;28;20035;-82
2023/09/06 18:00:52;;;;;;;0.07;0.07;;;;;;;;;;6294649;28;20012;-80
2023/09/06 18:03:56;;;;;;;0.00;0.00;;;;;;;;;;6297800;28;20394;-81
2023/09/06 18:06:57;;;;;;;0.10;0.10;;;;;;;;;;6300071;28;20069;-81
2023/09/06 18:09:57;;;;;;;0.00;0.00;;;;;;;;;;6292383;28;20024;-82
2023/09/06 18:13:00;;;;;;;0.10;0.10;;;;;;;;;;6294486;28;20024;-82
2023/09/06 18:16:00;;;;;;;0.10;0.10;;;;;;;;;;6273584;28;20441;-82
2023/09/06 18:19:01;;;;;;;0.10;0.10;;;;;;;;;;6274816;28;20123;-82